Time;durP1;ratioP1;P1;durP2;ratioP2;P2;SDS_P1;SDS_P2;PMS_P1;PMS_P2;Temp;Humidity;BMP_temperature;BMP_pressure;BME280_temperature;BME280_humidity;BME280_pressure;Samples;Min_cycle;Max_cycle;Signal;HPM_P1;HPM_P2
2023/06/27 00:04:00;;;;;;;3.45;1.92;;;;;;;20.25;39.11;100208.97;10442937;28;20228;-69
2023/06/27 00:09:05;;;;;;;3.72;1.80;;;;;;;21.20;38.02;100165.13;10442942;28;20218;-69
2023/06/27 00:14:09;;;;;;;3.67;1.92;;;;;;;21.41;37.62;100169.88;10448302;28;20232;-69
2023/06/27 00:19:10;;;;;;;5.20;1.90;;;;;;;20.41;38.72;100203.88;10441513;28;20292;-69
2023/06/27 00:24:12;;;;;;;5.57;1.90;;;;;;;21.22;38.03;100144.78;10442312;28;20228;-70
2023/06/27 00:29:14;;;;;;;3.35;1.77;;;;;;;20.97;38.54;100182.41;10441944;28;20335;-69
2023/06/27 00:34:15;;;;;;;5.53;1.70;;;;;;;21.21;38.39;100170.31;10445377;28;20740;-68
2023/06/27 00:39:17;;;;;;;4.07;2.17;;;;;;;21.26;37.96;100234.91;10453228;28;20235;-69
2023/06/27 00:44:19;;;;;;;6.15;1.70;;;;;;;20.64;38.57;100233.69;10444763;28;20278;-69
2023/06/27 00:49:21;;;;;;;4.13;2.03;;;;;;;20.44;39.07;100238.72;10440903;28;20746;-68
2023/06/27 00:54:23;;;;;;;1.80;1.70;;;;;;;21.32;38.37;100135.91;10442526;28;20743;-69
2023/06/27 00:59:25;;;;;;;2.70;1.50;;;;;;;21.05;39.18;100207.34;10444445;28;20373;-69
2023/06/27 01:04:29;;;;;;;2.72;1.98;;;;;;;21.40;38.37;100195.41;10442669;28;20737;-69
2023/06/27 01:09:40;;;;;;;3.15;1.80;;;;;;;22.14;37.65;100220.81;10444146;28;20228;-69
2023/06/27 01:14:45;;;;;;;2.75;1.73;;;;;;;23.10;36.06;100214.06;10451745;28;20289;-69
2023/06/27 01:19:49;;;;;;;1.92;1.75;;;;;;;20.71;38.79;100285.22;10452701;28;20342;-69
2023/06/27 01:24:51;;;;;;;1.92;1.60;;;;;;;22.24;37.31;100236.47;10444526;28;20263;-69
2023/06/27 01:29:53;;;;;;;3.70;1.80;;;;;;;21.53;37.82;100286.84;10442043;28;20308;-68
2023/06/27 01:35:18;;;;;;;2.80;1.88;;;;;;;20.40;38.96;100281.03;10440779;28;20319;-68
2023/06/27 01:40:21;;;;;;;2.38;1.60;;;;;;;20.68;38.80;100245.75;10447016;28;20286;-69
2023/06/27 01:45:24;;;;;;;4.43;2.00;;;;;;;20.51;38.96;100258.44;10442523;28;20220;-69
2023/06/27 01:50:26;;;;;;;4.60;1.98;;;;;;;21.97;37.32;100199.03;10441821;28;20261;-69
2023/06/27 01:55:29;;;;;;;5.18;1.80;;;;;;;21.95;37.23;100209.38;10436518;28;20208;-69
2023/06/27 02:00:31;;;;;;;2.38;1.98;;;;;;;22.25;37.42;100238.09;10435373;28;20232;-70
2023/06/27 02:05:33;;;;;;;2.45;1.90;;;;;;;22.57;37.76;100188.38;10433497;28;20250;-69
2023/06/27 02:10:34;;;;;;;2.33;1.90;;;;;;;21.04;38.28;100257.38;10439686;28;20628;-68
2023/06/27 02:15:36;;;;;;;5.25;2.42;;;;;;;22.56;37.75;100227.66;10441040;28;20314;-69
2023/06/27 02:20:38;;;;;;;2.70;2.20;;;;;;;22.97;36.42;100230.81;10438900;28;20760;-69
2023/06/27 02:25:43;;;;;;;2.42;1.80;;;;;;;21.44;38.13;100219.44;10439928;28;20236;-69
2023/06/27 02:30:44;;;;;;;6.20;1.77;;;;;;;22.90;35.90;100220.09;10436577;28;20228;-68
2023/06/27 02:35:46;;;;;;;1.75;1.65;;;;;;;22.49;37.60;100220.44;10433330;28;20201;-69
2023/06/27 02:40:48;;;;;;;3.67;2.08;;;;;;;21.85;38.04;100278.13;10436743;28;20621;-69
2023/06/27 02:45:50;;;;;;;2.63;1.83;;;;;;;22.83;37.41;100189.50;10431578;28;20265;-68
2023/06/27 02:50:51;;;;;;;3.88;2.00;;;;;;;22.44;37.41;100247.63;10440684;28;20314;-68
2023/06/27 02:55:53;;;;;;;2.97;2.00;;;;;;;22.76;37.95;100195.16;10427256;28;20751;-68
2023/06/27 03:00:55;;;;;;;2.05;1.80;;;;;;;22.40;37.63;100235.56;10433800;28;20228;-67
2023/06/27 03:05:58;;;;;;;3.03;1.85;;;;;;;22.26;38.75;100212.50;10440354;28;20351;-68
2023/06/27 03:11:00;;;;;;;2.75;1.80;;;;;;;22.45;38.81;100202.91;10433381;28;20291;-68
2023/06/27 03:16:01;;;;;;;4.10;2.03;;;;;;;21.79;39.04;100251.84;10437722;28;20289;-69
2023/06/27 03:21:03;;;;;;;2.88;2.10;;;;;;;21.85;39.91;100204.56;10437222;28;20247;-69
2023/06/27 03:26:05;;;;;;;4.65;2.33;;;;;;;21.98;39.77;100167.97;10444340;28;20699;-69
2023/06/27 03:31:07;;;;;;;3.13;2.05;;;;;;;22.41;39.21;100171.00;10435740;28;20232;-68
2023/06/27 03:36:08;;;;;;;3.03;2.08;;;;;;;22.21;39.03;100217.91;10442781;28;20291;-71
2023/06/27 03:41:12;;;;;;;1.73;1.52;;;;;;;22.24;38.86;100203.78;10436220;28;20227;-70
2023/06/27 03:46:14;;;;;;;2.03;1.50;;;;;;;22.14;39.63;100197.09;10444488;28;20232;-69
2023/06/27 03:51:17;;;;;;;2.47;2.20;;;;;;;22.21;39.60;100190.66;10434276;28;20315;-69
2023/06/27 03:56:18;;;;;;;4.30;2.10;;;;;;;22.13;39.86;100186.44;10429865;28;20303;-70
2023/06/27 04:01:20;;;;;;;2.63;1.90;;;;;;;21.28;41.27;100235.47;10428155;28;20266;-71
2023/06/27 04:06:22;;;;;;;2.30;1.85;;;;;;;22.37;39.74;100181.59;10430115;28;20803;-70
2023/06/27 04:11:24;;;;;;;2.42;1.85;;;;;;;22.15;40.19;100174.22;10432879;28;20240;-69
2023/06/27 04:16:27;;;;;;;2.33;1.90;;;;;;;21.90;40.71;100187.47;10433674;28;20205;-70
2023/06/27 04:21:29;;;;;;;3.80;2.05;;;;;;;22.22;40.00;100179.50;10436747;28;20236;-70
2023/06/27 04:26:31;;;;;;;2.28;1.75;;;;;;;21.73;40.48;100231.91;10438600;28;20278;-70
2023/06/27 04:31:32;;;;;;;2.10;1.77;;;;;;;19.89;43.29;100256.19;10434812;28;20254;-70
2023/06/27 04:36:36;;;;;;;3.03;1.95;;;;;;;18.80;45.30;100211.88;10435599;28;20280;-69
2023/06/27 04:41:38;;;;;;;2.88;1.95;;;;;;;19.74;43.05;100177.97;10430401;28;20240;-70
2023/06/27 04:46:40;;;;;;;5.72;2.50;;;;;;;22.08;39.66;100157.25;10438405;28;20239;-70
2023/06/27 04:51:42;;;;;;;2.80;2.15;;;;;;;19.95;42.61;100287.88;10432118;28;20320;-69
2023/06/27 04:56:43;;;;;;;2.60;1.95;;;;;;;20.24;41.68;100249.97;10436871;28;20212;-70
2023/06/27 05:01:46;;;;;;;7.55;2.40;;;;;;;20.24;41.68;100230.94;10435900;28;20242;-70
2023/06/27 05:06:48;;;;;;;5.15;1.70;;;;;;;19.99;41.50;100229.31;10434590;28;20322;-70
2023/06/27 05:11:50;;;;;;;2.90;2.42;;;;;;;20.47;41.32;100168.41;10430277;28;20731;-70
2023/06/27 05:16:51;;;;;;;2.83;2.00;;;;;;;19.75;42.63;100210.31;10434660;28;20665;-69
2023/06/27 05:21:53;;;;;;;4.78;1.80;;;;;;;20.15;42.07;100235.91;10437421;28;20235;-70
2023/06/27 05:26:55;;;;;;;4.43;2.05;;;;;;;20.35;40.99;100280.94;10429383;28;20223;-70
2023/06/27 05:31:56;;;;;;;6.82;2.60;;;;;;;20.12;42.46;100256.19;10433681;28;20228;-70
2023/06/27 05:36:58;;;;;;;4.47;1.70;;;;;;;19.49;43.35;100248.72;10436243;28;20641;-69
2023/06/27 05:42:00;;;;;;;3.38;2.38;;;;;;;20.51;41.66;100214.94;10429353;28;20224;-70
2023/06/27 05:47:03;;;;;;;6.15;2.58;;;;;;;20.08;41.36;100292.25;10432494;28;20242;-70
2023/06/27 05:52:05;;;;;;;4.38;1.88;;;;;;;20.61;41.08;100217.06;10432911;28;20239;-69
2023/06/27 05:57:06;;;;;;;4.00;1.92;;;;;;;19.61;41.47;100330.19;10435268;28;20212;-69
2023/06/27 06:02:09;;;;;;;3.05;1.88;;;;;;;20.52;40.31;100262.81;10430738;28;20279;-70
2023/06/27 06:07:11;;;;;;;3.58;1.70;;;;;;;19.99;40.81;100323.53;10429552;28;20221;-70
2023/06/27 06:12:13;;;;;;;4.88;2.20;;;;;;;19.78;41.44;100333.06;10431425;28;20252;-70
2023/06/27 06:17:15;;;;;;;3.42;1.88;;;;;;;20.79;39.91;100241.38;10433573;28;20886;-73
2023/06/27 06:22:16;;;;;;;4.22;2.13;;;;;;;21.82;39.10;100231.47;10437102;28;20251;-73
2023/06/27 06:27:18;;;;;;;1.60;1.50;;;;;;;21.84;38.33;100240.22;10420902;28;20262;-72
2023/06/27 06:32:20;;;;;;;2.17;1.75;;;;;;;22.41;36.34;100353.66;10434784;28;20776;-72
2023/06/27 06:37:22;;;;;;;4.55;1.58;;;;;;;21.44;37.16;100371.88;10430480;28;20773;-72
2023/06/27 06:42:23;;;;;;;4.07;1.77;;;;;;;20.94;36.87;100373.31;10431589;28;20235;-72
2023/06/27 06:47:26;;;;;;;1.50;1.40;;;;;;;21.64;36.67;100303.34;10431750;28;20235;-73
2023/06/27 06:52:28;;;;;;;2.50;1.60;;;;;;;21.41;37.15;100367.75;10432031;28;20231;-72
2023/06/27 06:57:30;;;;;;;1.70;1.60;;;;;;;21.66;37.49;100364.69;10432087;28;20287;-72
2023/06/27 07:02:32;;;;;;;3.35;1.42;;;;;;;21.12;37.21;100394.06;10432114;28;20258;-72
2023/06/27 07:07:33;;;;;;;3.10;1.50;;;;;;;21.66;36.69;100312.09;10430396;28;20319;-72
2023/06/27 07:12:35;;;;;;;2.33;1.67;;;;;;;21.01;36.56;100431.13;10418456;28;20791;-72
2023/06/27 07:17:37;;;;;;;2.55;1.67;;;;;;;22.58;35.28;100342.75;10394018;28;20200;-72
2023/06/27 07:22:39;;;;;;;2.42;1.48;;;;;;;20.41;37.67;100380.53;10397299;28;20340;-72
2023/06/27 07:27:44;;;;;;;2.45;2.00;;;;;;;22.27;35.40;100334.09;10398515;28;20229;-72
2023/06/27 07:32:46;;;;;;;2.25;1.98;;;;;;;22.97;35.66;100321.69;10402503;28;20236;-73
2023/06/27 07:37:47;;;;;;;2.65;1.73;;;;;;;23.06;35.42;100317.47;10400251;28;20204;-73
2023/06/27 07:42:49;;;;;;;4.72;1.40;;;;;;;23.23;35.25;100320.09;10402709;28;20244;-73
2023/06/27 07:47:51;;;;;;;3.38;1.63;;;;;;;21.60;35.93;100407.31;10402039;28;20229;-73
2023/06/27 07:52:53;;;;;;;1.92;1.30;;;;;;;22.12;34.72;100289.19;10406102;28;20240;-73
2023/06/27 07:57:55;;;;;;;3.15;1.60;;;;;;;23.17;34.40;100301.19;10387049;28;20297;-73
2023/06/27 08:02:56;;;;;;;3.95;1.92;;;;;;;22.79;35.46;100281.94;10403070;28;20624;-73
2023/06/27 08:07:59;;;;;;;3.28;1.60;;;;;;;22.77;35.80;100300.44;10405475;28;20271;-73
2023/06/27 08:13:01;;;;;;;2.75;1.55;;;;;;;21.61;36.78;100337.38;10421235;28;20676;-73
2023/06/27 08:18:03;;;;;;;1.77;1.30;;;;;;;22.45;36.13;100268.34;10437066;28;20223;-72
2023/06/27 08:23:08;;;;;;;2.78;2.03;;;;;;;22.21;35.41;100265.03;10433850;28;20320;-72
2023/06/27 08:28:09;;;;;;;2.83;1.48;;;;;;;22.73;35.33;100298.50;10436095;28;20290;-72
2023/06/27 08:33:11;;;;;;;3.75;1.80;;;;;;;23.05;35.67;100291.22;10438914;28;20244;-73
2023/06/27 08:38:13;;;;;;;7.93;2.63;;;;;;;23.48;35.64;100244.16;10437127;28;20625;-73
2023/06/27 08:43:14;;;;;;;2.15;1.58;;;;;;;23.19;34.98;100241.72;10434638;28;20231;-73
2023/06/27 08:48:17;;;;;;;4.30;2.55;;;;;;;23.31;34.49;100346.09;10436863;28;20254;-73
2023/06/27 08:53:21;;;;;;;2.92;1.65;;;;;;;22.00;35.10;100283.00;10432473;28;20754;-69
2023/06/27 08:58:28;;;;;;;3.95;2.05;;;;;;;22.15;36.08;100217.81;10436614;28;20221;-70
2023/06/27 09:03:34;;;;;;;3.22;1.67;;;;;;;23.60;34.79;100266.63;10437399;28;20232;-70
2023/06/27 09:08:36;;;;;;;2.90;1.50;;;;;;;22.65;35.18;100277.91;10434967;28;20207;-70
2023/06/27 09:13:38;;;;;;;2.67;1.77;;;;;;;22.88;35.21;100244.91;10436168;28;20306;-71
2023/06/27 09:18:40;;;;;;;3.47;1.85;;;;;;;22.22;35.66;100214.06;10435027;28;20208;-70
2023/06/27 09:23:42;;;;;;;2.42;1.50;;;;;;;20.99;36.75;100322.56;10432762;28;20318;-69
2023/06/27 09:28:47;;;;;;;7.15;1.80;;;;;;;22.43;34.56;100235.06;10431928;28;20243;-70
2023/06/27 09:33:49;;;;;;;4.50;1.60;;;;;;;23.63;34.21;100258.81;10417401;28;20220;-70
2023/06/27 09:39:04;;;;;;;2.83;1.75;;;;;;;23.31;34.34;100280.59;10430477;28;20797;-69
2023/06/27 09:44:19;;;;;;;2.55;1.63;;;;;;;23.75;33.28;100255.88;10434095;28;20254;-70
2023/06/27 09:49:25;;;;;;;2.65;1.40;;;;;;;21.89;35.28;100281.97;10432076;28;20627;-70
2023/06/27 09:54:26;;;;;;;3.05;1.60;;;;;;;23.71;33.50;100294.91;10429663;28;20258;-70
2023/06/27 09:59:29;;;;;;;3.38;1.98;;;;;;;23.80;33.79;100230.50;10435528;28;20273;-70
2023/06/27 10:04:31;;;;;;;5.88;1.63;;;;;;;21.75;35.06;100319.63;10431989;28;20800;-70
2023/06/27 10:09:53;;;;;;;2.22;1.50;;;;;;;22.25;34.91;100246.28;10433128;28;20235;-69
2023/06/27 10:14:55;;;;;;;3.20;1.52;;;;;;;24.44;33.34;100231.41;10433130;28;20436;-70
2023/06/27 10:19:57;;;;;;;3.75;1.40;;;;;;;25.36;32.14;100250.88;10432058;28;20257;-69
2023/06/27 10:25:04;;;;;;;3.55;1.65;;;;;;;23.78;33.25;100320.91;10431572;28;20225;-70
2023/06/27 10:30:22;;;;;;;2.17;1.55;;;;;;;23.87;33.19;100276.72;10432890;28;20224;-71
2023/06/27 10:35:26;;;;;;;2.13;1.50;;;;;;;23.91;33.20;100237.69;10431487;28;20216;-71
2023/06/27 10:40:29;;;;;;;2.60;1.65;;;;;;;24.24;32.68;100278.63;10432706;28;20262;-70
2023/06/27 10:45:31;;;;;;;7.38;1.60;;;;;;;24.28;33.20;100253.22;10430708;28;20277;-69
2023/06/27 10:50:35;;;;;;;2.35;1.27;;;;;;;22.10;33.00;100307.69;10433775;28;20309;-71
2023/06/27 10:55:38;;;;;;;1.75;1.13;;;;;;;24.07;31.63;100213.97;10429276;28;20219;-71
2023/06/27 11:06:38;;;;;;;2.80;1.67;;;;;;;22.35;33.65;100257.31;10469667;28;20868;-69
2023/06/27 11:11:40;;;;;;;3.25;1.80;;;;;;;23.42;33.33;100240.56;10448128;28;20231;-70
2023/06/27 11:16:45;;;;;;;3.40;1.90;;;;;;;22.58;33.93;100233.66;10433048;28;20311;-71
2023/06/27 11:21:47;;;;;;;2.55;1.63;;;;;;;23.25;33.32;100218.84;10430486;28;20661;-70
2023/06/27 11:26:50;;;;;;;2.80;1.60;;;;;;;24.14;32.88;100244.66;10436321;28;20228;-71
2023/06/27 11:31:55;;;;;;;3.35;1.42;;;;;;;24.36;32.82;100214.44;10432343;28;20279;-69
2023/06/27 11:36:57;;;;;;;1.73;1.60;;;;;;;24.32;32.58;100176.97;10444113;28;20294;-70
2023/06/27 11:41:58;;;;;;;2.75;1.77;;;;;;;24.20;32.47;100259.19;10431462;28;20235;-69
2023/06/27 11:47:05;;;;;;;2.38;1.75;;;;;;;22.50;33.53;100233.03;10438419;28;20263;-69
2023/06/27 11:52:06;;;;;;;2.28;1.40;;;;;;;25.51;31.40;100208.13;10428011;28;20231;-70
2023/06/27 11:57:08;;;;;;;3.13;1.55;;;;;;;24.23;32.68;100222.31;10432524;28;20236;-70
2023/06/27 12:02:10;;;;;;;2.97;1.63;;;;;;;24.58;32.45;100202.50;10433973;28;20787;-70
2023/06/27 12:07:19;;;;;;;3.45;1.60;;;;;;;24.28;32.25;100217.69;10427676;28;20200;-71
2023/06/27 12:12:21;;;;;;;3.08;1.65;;;;;;;24.36;31.99;100186.28;10436771;28;20221;-70
2023/06/27 12:17:23;;;;;;;3.38;1.50;;;;;;;25.32;31.58;100153.94;10420224;28;20208;-71
2023/06/27 12:22:25;;;;;;;1.83;1.42;;;;;;;24.46;32.20;100215.56;10400275;28;20294;-71
2023/06/27 12:27:33;;;;;;;2.72;1.85;;;;;;;25.33;31.16;100179.38;10408472;28;20300;-72
2023/06/27 12:32:35;;;;;;;4.05;1.60;;;;;;;24.86;31.91;100192.19;10400387;28;20577;-71
2023/06/27 12:37:38;;;;;;;3.13;2.05;;;;;;;25.26;31.27;100171.44;10408698;28;20208;-70
2023/06/27 12:42:41;;;;;;;4.35;1.75;;;;;;;24.96;32.32;100120.22;10400297;28;20229;-71
2023/06/27 12:47:43;;;;;;;3.63;1.63;;;;;;;25.71;31.75;100109.47;10412834;28;20240;-71
2023/06/27 12:52:49;;;;;;;2.85;1.75;;;;;;;26.16;30.35;100134.25;10406586;28;20260;-71
2023/06/27 12:57:51;;;;;;;3.13;1.70;;;;;;;25.31;31.38;100144.06;10408334;28;20564;-71
2023/06/27 13:02:53;;;;;;;2.38;1.77;;;;;;;23.93;31.51;100144.50;10405554;28;20268;-70
2023/06/27 13:08:08;;;;;;;2.70;1.52;;;;;;;23.22;32.08;100148.38;10402039;28;20638;-71
2023/06/27 13:13:10;;;;;;;2.20;1.48;;;;;;;24.26;31.43;100156.16;10399309;28;20720;-70
2023/06/27 13:18:11;;;;;;;1.30;1.20;;;;;;;25.27;31.10;100121.03;10404713;28;20229;-70
2023/06/27 13:23:13;;;;;;;2.13;1.58;;;;;;;24.74;30.97;100173.28;10402095;28;20323;-70
2023/06/27 13:28:15;;;;;;;2.83;1.70;;;;;;;24.28;31.34;100122.00;10401892;28;20949;-71
2023/06/27 13:33:17;;;;;;;2.05;1.58;;;;;;;26.08;29.76;100096.44;10403775;28;20227;-71
2023/06/27 13:38:18;;;;;;;1.98;1.70;;;;;;;25.04;31.30;100141.56;10405731;28;20847;-71
2023/06/27 13:43:20;;;;;;;1.67;1.40;;;;;;;25.87;30.79;100101.22;10402074;28;20240;-71
2023/06/27 13:48:22;;;;;;;2.42;1.80;;;;;;;25.76;30.87;100112.22;10412056;28;20295;-70
2023/06/27 13:53:25;;;;;;;2.13;1.70;;;;;;;24.33;31.75;100167.69;10404272;28;20952;-71
2023/06/27 13:58:27;;;;;;;2.40;1.48;;;;;;;25.71;30.95;100119.59;10400882;28;20232;-71
2023/06/27 14:03:29;;;;;;;3.13;1.70;;;;;;;25.47;30.83;100125.66;10408174;28;20729;-70
2023/06/27 14:08:32;;;;;;;2.78;1.48;;;;;;;26.58;30.39;100080.81;10403914;28;20291;-70
2023/06/27 14:13:33;;;;;;;3.00;1.83;;;;;;;25.23;31.15;100081.63;10397952;28;20244;-72
2023/06/27 14:18:35;;;;;;;3.38;1.95;;;;;;;25.73;30.74;100106.47;10405537;28;20205;-70
2023/06/27 14:23:39;;;;;;;3.25;1.73;;;;;;;26.19;30.78;100114.50;10394893;28;20954;-69
2023/06/27 14:28:41;;;;;;;2.90;1.75;;;;;;;26.16;30.26;100099.41;10406751;28;20223;-69
2023/06/27 14:33:43;;;;;;;1.63;1.33;;;;;;;26.01;30.36;100089.38;10402716;28;20311;-69
2023/06/27 14:38:44;;;;;;;2.03;1.45;;;;;;;26.02;29.60;100090.19;10399537;28;21112;-69
2023/06/27 14:43:46;;;;;;;2.47;1.65;;;;;;;25.89;29.12;100137.38;10391679;28;20704;-68
2023/06/27 14:48:50;;;;;;;1.83;1.20;;;;;;;25.88;29.55;100122.88;10404882;28;20240;-68
2023/06/27 14:53:52;;;;;;;4.38;1.83;;;;;;;25.75;29.06;100126.19;10419337;23;20337;-35
2023/06/27 14:58:53;;;;;;;4.72;1.73;;;;;;;24.94;30.21;100112.28;10403790;28;20213;-34
2023/06/27 15:03:55;;;;;;;1.52;1.35;;;;;;;25.78;29.79;100110.00;10389758;28;20233;-34
2023/06/27 15:08:57;;;;;;;1.65;1.40;;;;;;;26.10;29.96;100075.88;10409540;28;20240;-35
2023/06/27 15:13:59;;;;;;;2.58;1.52;;;;;;;25.81;29.30;100095.75;10402217;28;20224;-34
2023/06/27 15:19:01;;;;;;;3.03;1.52;;;;;;;26.49;29.26;100077.88;10394067;28;20216;-34
2023/06/27 15:24:03;;;;;;;3.60;1.33;;;;;;;25.54;29.26;100098.84;10393991;28;20809;-35
2023/06/27 15:29:04;;;;;;;1.65;1.13;;;;;;;24.24;30.53;100060.75;10404129;28;20770;-35
2023/06/27 15:34:06;;;;;;;3.08;1.83;;;;;;;23.45;31.00;100024.31;10398579;28;20232;-34
2023/06/27 15:39:08;;;;;;;2.80;1.52;;;;;;;25.24;30.01;100023.03;10408838;28;20666;-34
2023/06/27 15:44:10;;;;;;;2.22;1.50;;;;;;;24.63;29.80;100060.25;10396656;28;20290;-34
2023/06/27 15:49:12;;;;;;;2.45;1.73;;;;;;;24.06;30.43;100028.41;10393977;28;20789;-34
2023/06/27 15:54:17;;;;;;;2.38;1.40;;;;;;;22.71;31.67;100002.25;10403861;28;20893;-34
2023/06/27 15:59:18;;;;;;;2.10;1.50;;;;;;;24.13;30.80;99964.19;10413188;28;20823;-34
2023/06/27 16:04:20;;;;;;;2.72;1.77;;;;;;;25.63;29.39;99978.53;10399956;28;20237;-34
2023/06/27 16:09:22;;;;;;;3.55;1.83;;;;;;;23.07;30.83;100035.28;10413424;28;20263;-34
2023/06/27 16:14:24;;;;;;;4.75;1.85;;;;;;;24.83;29.77;99991.06;10404860;28;20220;-34
2023/06/27 16:19:26;;;;;;;2.00;1.60;;;;;;;22.20;31.78;99981.84;10397710;28;20210;-34
2023/06/27 16:24:28;;;;;;;2.40;1.52;;;;;;;25.06;29.52;99995.09;10405401;28;20228;-34
2023/06/27 16:29:30;;;;;;;2.13;1.50;;;;;;;25.93;29.01;99980.31;10406315;28;20584;-34
2023/06/27 16:34:38;;;;;;;2.90;1.45;;;;;;;25.65;29.21;100015.47;10407494;28;20225;-34
2023/06/27 16:39:41;;;;;;;1.83;1.48;;;;;;;25.36;29.31;100000.81;10405500;28;20211;-34
2023/06/27 16:44:42;;;;;;;3.80;1.95;;;;;;;25.24;29.12;100009.34;10408865;28;20236;-34
2023/06/27 16:49:44;;;;;;;2.50;1.40;;;;;;;25.34;29.09;100025.75;10404554;28;20326;-34
2023/06/27 16:54:46;;;;;;;2.95;1.85;;;;;;;23.68;30.99;99971.19;10399429;28;20776;-34
2023/06/27 16:59:48;;;;;;;5.32;1.95;;;;;;;24.70;30.05;100003.38;10405557;28;20213;-34
2023/06/27 17:04:49;;;;;;;2.38;1.58;;;;;;;24.31;30.28;99992.09;10400279;28;20732;-34
2023/06/27 17:09:51;;;;;;;4.70;1.77;;;;;;;24.87;29.66;99964.78;10397140;28;20213;-34
2023/06/27 17:14:53;;;;;;;2.28;1.60;;;;;;;23.42;30.46;100005.75;10401680;28;20233;-34
2023/06/27 17:19:55;;;;;;;2.85;1.60;;;;;;;25.08;29.28;99978.41;10398733;28;20215;-34
2023/06/27 17:24:57;;;;;;;4.03;1.40;;;;;;;26.34;28.29;99973.75;10391762;28;20237;-34
2023/06/27 17:29:59;;;;;;;3.22;1.77;;;;;;;25.84;28.69;100012.97;10392747;28;20212;-35
2023/06/27 17:35:00;;;;;;;2.25;1.55;;;;;;;25.31;29.92;100009.88;10395636;28;20220;-34
2023/06/27 17:40:03;;;;;;;2.42;1.60;;;;;;;25.71;29.46;100009.97;10394757;28;20217;-34
2023/06/27 17:45:05;;;;;;;2.88;1.77;;;;;;;26.06;29.44;99975.28;10400766;28;20251;-34
2023/06/27 17:50:09;;;;;;;1.65;1.33;;;;;;;26.15;28.85;99990.03;10391368;28;20279;-35
2023/06/27 17:55:11;;;;;;;3.10;1.65;;;;;;;26.08;29.03;99997.75;10397687;28;20735;-34
2023/06/27 18:00:13;;;;;;;1.27;1.17;;;;;;;25.43;28.74;100004.88;10398417;28;20217;-34
2023/06/27 18:05:20;;;;;;;1.80;1.38;;;;;;;26.26;29.01;99990.81;10394303;28;20232;-34
2023/06/27 18:10:23;;;;;;;1.67;1.50;;;;;;;26.41;29.37;99963.25;10396452;28;20913;-34
2023/06/27 18:15:24;;;;;;;4.45;2.28;;;;;;;26.48;28.45;99985.69;9470340;28;10000819;-34
2023/06/27 18:20:26;;;;;;;1.95;1.42;;;;;;;24.13;30.30;99985.22;10322954;28;20636;-34
2023/06/27 18:25:28;;;;;;;2.42;1.58;;;;;;;25.87;29.24;99943.06;10300483;28;20238;-35
2023/06/27 18:30:30;;;;;;;3.00;1.60;;;;;;;24.30;30.72;99961.22;9492949;28;10000979;-34
2023/06/27 18:35:35;;;;;;;2.67;1.63;;;;;;;23.84;31.28;99939.28;10362516;28;20220;-34
2023/06/27 18:40:37;;;;;;;2.90;1.50;;;;;;;24.67;30.63;99953.84;10354064;28;20213;-34
2023/06/27 18:45:40;;;;;;;3.05;1.60;;;;;;;25.01;30.49;99980.63;10360967;28;20236;-34
2023/06/27 18:50:41;;;;;;;2.05;1.75;;;;;;;23.50;31.88;99964.28;10355583;28;20205;-35
2023/06/27 18:55:44;;;;;;;4.25;1.63;;;;;;;23.61;32.05;99938.66;10356284;28;20247;-34
2023/06/27 19:00:45;;;;;;;3.47;1.63;;;;;;;23.73;32.24;99956.72;10356441;28;20765;-34
2023/06/27 19:05:47;;;;;;;2.03;1.40;;;;;;;24.74;31.45;99941.53;10352083;28;20464;-34
2023/06/27 19:10:49;;;;;;;11.88;2.13;;;;;;;22.99;32.95;99972.16;10352994;28;20218;-34
2023/06/27 19:15:51;;;;;;;3.72;1.70;;;;;;;25.80;30.86;99968.03;10349791;28;20753;-34
2023/06/27 19:20:53;;;;;;;2.90;1.75;;;;;;;23.11;33.30;99969.25;10352177;28;20213;-34
2023/06/27 19:25:56;;;;;;;3.15;1.60;;;;;;;23.25;32.75;99945.88;10352660;28;21263;-34
2023/06/27 19:30:57;;;;;;;4.50;1.50;;;;;;;22.73;32.98;99943.91;10358198;28;20690;-34
2023/06/27 19:36:01;;;;;;;1.55;1.42;;;;;;;23.10;32.72;99965.72;10359740;28;20234;-34
2023/06/27 19:41:03;;;;;;;3.75;1.60;;;;;;;23.54;32.35;99959.09;10358626;28;20208;-35
2023/06/27 19:46:05;;;;;;;2.80;1.38;;;;;;;22.61;33.01;100006.81;10367067;28;20244;-35
2023/06/27 19:51:10;;;;;;;4.30;1.80;;;;;;;23.61;32.56;99949.56;10359158;28;20237;-35
2023/06/27 19:56:12;;;;;;;4.50;2.00;;;;;;;23.04;32.65;100002.19;10353421;28;20240;-34
2023/06/27 20:01:14;;;;;;;3.30;1.92;;;;;;;22.53;33.20;100008.91;10364702;28;20202;-35
2023/06/27 20:06:16;;;;;;;3.05;1.70;;;;;;;22.65;33.41;99972.47;10363646;28;20313;-34
2023/06/27 20:11:20;;;;;;;2.10;1.50;;;;;;;21.94;34.16;100003.41;10356213;28;20228;-34
2023/06/27 20:16:22;;;;;;;1.90;1.60;;;;;;;21.62;34.50;100014.97;10363165;28;20229;-34
2023/06/27 20:21:24;;;;;;;2.13;1.55;;;;;;;21.66;34.80;100001.66;10360959;28;20255;-34
2023/06/27 20:26:26;;;;;;;2.55;1.50;;;;;;;22.09;34.22;99992.66;10359618;28;20229;-34
2023/06/27 20:31:28;;;;;;;1.98;1.27;;;;;;;21.88;34.97;100020.72;10358557;28;20216;-34
2023/06/27 20:36:32;;;;;;;1.98;1.55;;;;;;;22.50;33.91;100001.28;10361200;28;20291;-34
2023/06/27 20:41:35;;;;;;;2.00;1.35;;;;;;;22.29;33.79;100024.75;10356031;28;20213;-34
2023/06/27 20:46:39;;;;;;;4.47;1.73;;;;;;;22.93;33.32;100000.50;10359532;28;20248;-34
2023/06/27 20:51:41;;;;;;;2.47;1.27;;;;;;;22.47;33.79;100023.56;10360117;28;20288;-34
2023/06/27 20:56:46;;;;;;;3.42;1.92;;;;;;;23.07;32.96;100018.09;10364215;28;20300;-34
2023/06/27 21:01:48;;;;;;;3.65;1.55;;;;;;;22.37;33.94;100037.09;10359205;28;20291;-34
2023/06/27 21:06:50;;;;;;;3.00;1.55;;;;;;;22.37;33.67;100042.56;10361263;28;20257;-35
2023/06/27 21:11:52;;;;;;;4.57;1.50;;;;;;;22.47;34.11;100009.09;10359993;28;20241;-34
2023/06/27 21:16:57;;;;;;;2.55;1.58;;;;;;;23.63;32.80;99996.59;10358766;28;20236;-35
2023/06/27 21:21:59;;;;;;;1.77;1.33;;;;;;;22.18;34.24;100046.69;10355844;28;20691;-35
2023/06/27 21:27:01;;;;;;;3.38;1.75;;;;;;;21.84;34.68;100071.34;10360629;28;20261;-35
2023/06/27 21:32:04;;;;;;;2.10;1.25;;;;;;;22.21;34.70;100010.78;10357503;28;20652;-35
2023/06/27 21:37:06;;;;;;;3.03;1.60;;;;;;;22.14;34.23;100032.78;10359860;28;20230;-35
2023/06/27 21:42:07;;;;;;;3.35;1.52;;;;;;;21.45;35.76;100000.59;10359198;28;20213;-35
2023/06/27 21:47:09;;;;;;;2.65;1.50;;;;;;;22.42;35.03;99969.00;10366166;28;20236;-34
2023/06/27 21:52:11;;;;;;;2.63;1.50;;;;;;;21.41;35.84;100001.09;10355790;28;20220;-34
2023/06/27 21:57:13;;;;;;;6.38;2.03;;;;;;;20.83;36.95;100024.16;10364021;28;20253;-34
2023/06/27 22:02:15;;;;;;;3.10;1.40;;;;;;;21.17;36.68;99977.88;10363555;28;20209;-34
2023/06/27 22:07:17;;;;;;;6.47;1.77;;;;;;;21.32;37.15;99958.22;10354416;28;20229;-34
2023/06/27 22:12:20;;;;;;;5.72;1.98;;;;;;;20.83;37.32;99996.97;10353598;28;20220;-34
2023/06/27 22:17:22;;;;;;;3.60;1.52;;;;;;;21.09;36.95;100002.78;10354523;28;20229;-34
2023/06/27 22:22:24;;;;;;;2.97;2.17;;;;;;;20.97;37.23;100006.44;10356416;28;20989;-34
2023/06/27 22:27:26;;;;;;;2.58;1.67;;;;;;;20.66;37.13;100021.41;10354646;28;20225;-34
2023/06/27 22:32:28;;;;;;;4.18;1.98;;;;;;;21.84;35.82;100009.50;10357639;28;20267;-34
2023/06/27 22:37:29;;;;;;;2.83;1.65;;;;;;;22.42;35.58;99979.06;10357059;28;20228;-34
2023/06/27 22:42:31;;;;;;;2.72;1.60;;;;;;;21.07;36.43;100064.78;10358997;28;20703;-34
2023/06/27 22:47:35;;;;;;;5.03;1.92;;;;;;;21.38;36.75;100019.84;10363362;28;20228;-34
2023/06/27 22:52:37;;;;;;;2.75;1.77;;;;;;;20.68;37.56;100019.25;10351416;28;20217;-34
2023/06/27 22:57:39;;;;;;;2.13;1.75;;;;;;;22.12;35.83;99988.63;10358749;28;20309;-34
2023/06/27 23:02:40;;;;;;;4.20;2.22;;;;;;;22.61;35.12;100061.34;10358153;28;20209;-34
2023/06/27 23:07:43;;;;;;;2.47;1.70;;;;;;;21.49;36.00;100106.03;10360448;28;20244;-34
2023/06/27 23:12:45;;;;;;;1.85;1.60;;;;;;;22.32;35.20;100059.69;10359941;28;21951;-34
2023/06/27 23:17:48;;;;;;;1.95;1.50;;;;;;;23.28;34.93;100023.66;10358435;28;20221;-34
2023/06/27 23:22:50;;;;;;;2.53;1.40;;;;;;;23.61;34.46;100058.00;10349866;28;20232;-34